KMTC/MTC METAR and TAF weather

Enter ICAO airport designator
Station Type Date Time Source
KMTC METAR 2019/09/21 03:56 UTC NOAA

KMTC 210356Z AUTO 00000KT 10SM SCT095 20/20 A3014 RMK AO2 SLP209 T01970197


Station Type Date Time Source
KMTC Decoded METAR 2019/09/21 03:56 UTC NOAA

Selfridge Air National Guard Base, MI, United States (KMTC) 42-37N 082-50W
Sep 20, 2019 - 11:56 PM EDT / 2019.09.21 0356 UTC
Wind: Calm:0
Visibility: 10 mile(s):0
Sky conditions: partly cloudy
Temperature: 67.5 F (19.7 C)
Dew Point: 67.5 F (19.7 C)
Relative Humidity: 100%
Pressure (altimeter): 30.14 in. Hg (1020 hPa)
ob: KMTC 210356Z AUTO 00000KT 10SM SCT095 20/20 A3014 RMK AO2 SLP209 T01970197
cycle: 4

Station Type Date Time Source
KMTC TAF 2019/09/21 01:25 UTC NOAA

TAF KMTC 210100Z 2101/2207 14006KT 9999 SCT030 BKN050 QNH3010INS WND VRB06KT AFT 2109
BECMG 2114/2115 19009KT 9999 FEW030 SCT050 QNH3007INS
BECMG 2120/2121 20009KT 9000 -SHRA BKN025 OVC050 QNH3006INS
TEMPO 2121/2123 26010G20KT 6000 -TSRA BKN030CB
BECMG 2123/2124 18009KT 9999 NSW SCT030 BKN050 QNH3003INS TX28/2120Z TN16/2110Z LAST NO
AMDS AFT 2103 NEXT 2109

Example: see airport list